MLISHS1 KADW-KSDF
Flight info
| Callsign | MLISHS1 |
|---|---|
| Flight time | 1h 0m |
| Altitude | 28000 |
| Route | MRNG1 ADW OTTTO Q176 BICKS |
| Aircraft | F16/M-VRDW/C |
Departure
| Time | 2026-04-22 22:30 |
|---|---|
| Airport | Joint Base Andrews (KADW) |
Arrival
| Time | 2026-04-22 23:30 |
|---|---|
| Airport | Louisville Muhammad Ali International Airport (KSDF) |
| Time | Latitude | Longitude | Altitude | Speed | Heading |
|---|---|---|---|---|---|
| 2026-04-22 22:16 | 38.81977 | -76.86094 | 283 ft | 0 kts | 270° |
| 2026-04-22 22:27 | 38.81977 | -76.86112 | 283 ft | 3 kts | 270° |
| 2026-04-22 22:27 | 38.81980 | -76.86160 | 283 ft | 7 kts | 293° |
| 2026-04-22 22:27 | 38.82035 | -76.86178 | 283 ft | 10 kts | 0° |
| 2026-04-22 22:28 | 38.82120 | -76.86179 | 283 ft | 13 kts | 359° |
| 2026-04-22 22:28 | 38.82209 | -76.86178 | 283 ft | 14 kts | 360° |
| 2026-04-22 22:28 | 38.82322 | -76.86178 | 283 ft | 17 kts | 0° |
| 2026-04-22 22:28 | 38.82423 | -76.86194 | 283 ft | 13 kts | 324° |
| 2026-04-22 22:29 | 38.82441 | -76.86230 | 283 ft | 0 kts | 278° |
| 2026-04-22 22:29 | 38.82442 | -76.86240 | 283 ft | 5 kts | 277° |
| 2026-04-22 22:29 | 38.82442 | -76.86340 | 283 ft | 12 kts | 269° |
| 2026-04-22 22:29 | 38.82412 | -76.86365 | 283 ft | 24 kts | 180° |
| 2026-04-22 22:30 | 38.81094 | -76.86371 | 403 ft | 349 kts | 179° |
| 2026-04-22 22:30 | 38.78884 | -76.86323 | 6038 ft | 472 kts | 191° |
| 2026-04-22 22:30 | 38.75738 | -76.85783 | 9263 ft | 525 kts | 186° |
| 2026-04-22 22:30 | 38.72803 | -76.88090 | 11840 ft | 527 kts | 256° |
| 2026-04-22 22:31 | 38.72806 | -76.92548 | 16142 ft | 542 kts | 275° |
| 2026-04-22 22:31 | 38.73484 | -76.97091 | 18574 ft | 535 kts | 277° |
| 2026-04-22 22:31 | 38.74117 | -77.01769 | 17266 ft | 519 kts | 276° |
| 2026-04-22 22:31 | 38.74730 | -77.06248 | 18663 ft | 497 kts | 277° |
| 2026-04-22 22:32 | 38.75357 | -77.10533 | 20410 ft | 490 kts | 277° |
| 2026-04-22 22:32 | 38.75999 | -77.14938 | 21889 ft | 506 kts | 277° |
| 2026-04-22 22:32 | 38.76657 | -77.19340 | 23886 ft | 515 kts | 277° |
| 2026-04-22 22:32 | 38.77364 | -77.23918 | 25320 ft | 526 kts | 277° |
| 2026-04-22 22:33 | 38.78075 | -77.28529 | 26183 ft | 523 kts | 275° |
| 2026-04-22 22:33 | 38.78738 | -77.33092 | 27095 ft | 521 kts | 276° |
| 2026-04-22 22:33 | 38.79443 | -77.37734 | 27763 ft | 523 kts | 276° |
| 2026-04-22 22:33 | 38.80160 | -77.42278 | 27969 ft | 524 kts | 276° |
| 2026-04-22 22:34 | 38.80893 | -77.46930 | 27981 ft | 522 kts | 276° |
| 2026-04-22 22:34 | 38.81588 | -77.51542 | 27991 ft | 522 kts | 275° |
| 2026-04-22 22:34 | 38.82253 | -77.56173 | 27997 ft | 522 kts | 275° |
| 2026-04-22 22:34 | 38.82886 | -77.60817 | 27997 ft | 521 kts | 274° |
| 2026-04-22 22:35 | 38.83469 | -77.65410 | 27996 ft | 521 kts | 274° |
| 2026-04-22 22:35 | 38.84535 | -77.74739 | 28007 ft | 519 kts | 272° |
| 2026-04-22 22:36 | 38.85424 | -77.84079 | 28009 ft | 518 kts | 271° |
| 2026-04-22 22:36 | 38.86087 | -77.93323 | 28016 ft | 516 kts | 269° |
| 2026-04-22 22:37 | 38.86470 | -78.02673 | 28019 ft | 514 kts | 266° |
| 2026-04-22 22:37 | 38.86443 | -78.11911 | 28026 ft | 511 kts | 263° |
| 2026-04-22 22:38 | 38.86122 | -78.21165 | 28014 ft | 512 kts | 266° |
| 2026-04-22 22:38 | 38.86573 | -78.30454 | 28013 ft | 515 kts | 268° |
| 2026-04-22 22:39 | 38.86913 | -78.39770 | 28018 ft | 515 kts | 268° |
| 2026-04-22 22:39 | 38.87192 | -78.49015 | 28024 ft | 514 kts | 267° |
| 2026-04-22 22:40 | 38.87403 | -78.58344 | 28025 ft | 514 kts | 267° |
| 2026-04-22 22:40 | 38.87584 | -78.67679 | 28030 ft | 513 kts | 265° |
| 2026-04-22 22:41 | 38.87605 | -78.76924 | 28032 ft | 512 kts | 265° |
| 2026-04-22 22:41 | 38.87461 | -78.86183 | 28031 ft | 511 kts | 263° |
| 2026-04-22 22:42 | 38.87108 | -78.95428 | 28031 ft | 510 kts | 262° |
| 2026-04-22 22:42 | 38.86479 | -79.04568 | 28035 ft | 506 kts | 259° |
| 2026-04-22 22:43 | 38.85429 | -79.13541 | 28037 ft | 501 kts | 255° |
| 2026-04-22 22:43 | 38.84261 | -79.22416 | 28094 ft | 502 kts | 267° |
| 2026-04-22 22:44 | 38.84748 | -79.31525 | 28066 ft | 506 kts | 269° |
| 2026-04-22 22:44 | 38.85122 | -79.40649 | 28099 ft | 505 kts | 267° |
| 2026-04-22 22:45 | 38.85322 | -79.49694 | 28104 ft | 506 kts | 267° |
| 2026-04-22 22:45 | 38.85487 | -79.58831 | 28101 ft | 504 kts | 265° |
| 2026-04-22 22:46 | 38.85412 | -79.67960 | 28115 ft | 503 kts | 264° |
| 2026-04-22 22:46 | 38.85219 | -79.77026 | 28118 ft | 505 kts | 263° |
| 2026-04-22 22:47 | 38.84967 | -79.86143 | 28116 ft | 502 kts | 262° |
| 2026-04-22 22:47 | 38.84470 | -79.95174 | 28116 ft | 500 kts | 260° |
| 2026-04-22 22:48 | 38.83618 | -80.04128 | 28109 ft | 498 kts | 256° |
| 2026-04-22 22:48 | 38.82438 | -80.13047 | 28151 ft | 500 kts | 265° |
| 2026-04-22 22:49 | 38.82872 | -80.22150 | 28110 ft | 508 kts | 268° |
| 2026-04-22 22:49 | 38.83168 | -80.31364 | 28089 ft | 506 kts | 267° |
| 2026-04-22 22:50 | 38.83406 | -80.40451 | 28082 ft | 505 kts | 267° |
| 2026-04-22 22:50 | 38.83655 | -80.49633 | 28083 ft | 506 kts | 267° |
| 2026-04-22 22:51 | 38.83740 | -80.58715 | 28060 ft | 503 kts | 265° |
| 2026-04-22 22:51 | 38.83881 | -80.67950 | 28067 ft | 505 kts | 265° |
| 2026-04-22 22:52 | 38.83872 | -80.77026 | 28061 ft | 503 kts | 265° |
| 2026-04-22 22:52 | 38.83900 | -80.86078 | 28070 ft | 502 kts | 265° |
| 2026-04-22 22:53 | 38.83927 | -80.95168 | 28068 ft | 502 kts | 265° |
| 2026-04-22 22:53 | 38.83763 | -81.04144 | 28073 ft | 501 kts | 264° |
| 2026-04-22 22:54 | 38.83474 | -81.13242 | 28075 ft | 503 kts | 264° |
| 2026-04-22 22:54 | 38.83123 | -81.22262 | 28070 ft | 502 kts | 264° |
| 2026-04-22 22:55 | 38.82581 | -81.31345 | 28083 ft | 502 kts | 263° |
| 2026-04-22 22:55 | 38.81671 | -81.44955 | 28066 ft | 503 kts | 263° |
| 2026-04-22 22:56 | 38.81029 | -81.53970 | 28064 ft | 502 kts | 262° |
| 2026-04-22 22:56 | 38.80317 | -81.62990 | 28074 ft | 502 kts | 262° |
| 2026-04-22 22:57 | 38.79478 | -81.72063 | 28070 ft | 501 kts | 260° |
| 2026-04-22 22:57 | 38.78543 | -81.80969 | 28077 ft | 502 kts | 260° |
| 2026-04-22 22:58 | 38.77523 | -81.89945 | 28071 ft | 502 kts | 258° |
| 2026-04-22 22:58 | 38.76282 | -81.98825 | 28050 ft | 501 kts | 257° |
| 2026-04-22 22:59 | 38.75598 | -82.07816 | 28062 ft | 506 kts | 268° |
| 2026-04-22 22:59 | 38.75589 | -82.16927 | 28039 ft | 505 kts | 266° |
| 2026-04-22 23:00 | 38.75542 | -82.25942 | 28052 ft | 505 kts | 267° |
| 2026-04-22 23:00 | 38.75549 | -82.35120 | 28073 ft | 506 kts | 267° |
| 2026-04-22 23:01 | 38.75522 | -82.44254 | 28069 ft | 506 kts | 267° |
| 2026-04-22 23:01 | 38.75412 | -82.53391 | 28070 ft | 506 kts | 266° |
| 2026-04-22 23:02 | 38.75253 | -82.62513 | 28060 ft | 506 kts | 266° |
| 2026-04-22 23:02 | 38.75182 | -82.71684 | 28058 ft | 507 kts | 266° |
| 2026-04-22 23:03 | 38.75090 | -82.80850 | 28051 ft | 506 kts | 266° |
| 2026-04-22 23:03 | 38.74784 | -82.89957 | 28044 ft | 504 kts | 265° |
| 2026-04-22 23:04 | 38.74212 | -82.99035 | 28043 ft | 501 kts | 265° |
| 2026-04-22 23:04 | 38.73486 | -83.08099 | 28042 ft | 503 kts | 265° |
| 2026-04-22 23:05 | 38.72706 | -83.17145 | 28042 ft | 504 kts | 265° |
| 2026-04-22 23:05 | 38.71981 | -83.26196 | 28043 ft | 505 kts | 265° |
| 2026-04-22 23:06 | 38.71226 | -83.35197 | 28051 ft | 504 kts | 265° |
| 2026-04-22 23:06 | 38.70481 | -83.44213 | 28066 ft | 504 kts | 265° |
| 2026-04-22 23:07 | 38.69707 | -83.53309 | 28080 ft | 504 kts | 265° |
| 2026-04-22 23:07 | 38.68956 | -83.62322 | 28083 ft | 503 kts | 266° |
| 2026-04-22 23:08 | 38.68378 | -83.71378 | 28087 ft | 504 kts | 266° |
| 2026-04-22 23:08 | 38.67764 | -83.80400 | 28087 ft | 504 kts | 266° |
| 2026-04-22 23:09 | 38.67113 | -83.89467 | 28090 ft | 504 kts | 266° |
| 2026-04-22 23:09 | 38.66496 | -83.98543 | 28090 ft | 504 kts | 266° |
| 2026-04-22 23:10 | 38.65955 | -84.07619 | 28083 ft | 504 kts | 266° |
| 2026-04-22 23:10 | 38.65306 | -84.16663 | 28067 ft | 504 kts | 266° |
| 2026-04-22 23:11 | 38.64741 | -84.25732 | 28054 ft | 504 kts | 268° |
| 2026-04-22 23:11 | 38.64297 | -84.34740 | 28062 ft | 503 kts | 268° |
| 2026-04-22 23:12 | 38.63407 | -84.43726 | 28127 ft | 505 kts | 250° |
| 2026-04-22 23:12 | 38.61858 | -84.47922 | 27971 ft | 507 kts | 247° |
| 2026-04-22 23:12 | 38.60319 | -84.51810 | 26580 ft | 472 kts | 246° |
| 2026-04-22 23:13 | 38.58849 | -84.55423 | 25025 ft | 434 kts | 246° |
| 2026-04-22 23:13 | 38.57545 | -84.58704 | 23574 ft | 403 kts | 246° |
| 2026-04-22 23:13 | 38.56327 | -84.61807 | 22145 ft | 376 kts | 246° |
| 2026-04-22 23:13 | 38.55200 | -84.64758 | 20759 ft | 353 kts | 247° |
| 2026-04-22 23:14 | 38.54199 | -84.67483 | 19460 ft | 335 kts | 246° |
| 2026-04-22 23:14 | 38.53220 | -84.70128 | 18169 ft | 319 kts | 245° |
| 2026-04-22 23:14 | 38.52285 | -84.72636 | 16919 ft | 305 kts | 245° |
| 2026-04-22 23:14 | 38.51383 | -84.75120 | 15695 ft | 316 kts | 246° |
| 2026-04-22 23:15 | 38.50452 | -84.77764 | 14459 ft | 333 kts | 246° |
| 2026-04-22 23:15 | 38.49529 | -84.80406 | 14035 ft | 316 kts | 246° |
| 2026-04-22 23:15 | 38.48638 | -84.82977 | 13983 ft | 303 kts | 246° |
| 2026-04-22 23:15 | 38.47769 | -84.85495 | 14001 ft | 313 kts | 246° |
| 2026-04-22 23:16 | 38.46859 | -84.88139 | 14003 ft | 325 kts | 246° |
| 2026-04-22 23:16 | 38.45915 | -84.90882 | 14003 ft | 337 kts | 246° |
| 2026-04-22 23:16 | 38.44956 | -84.93696 | 14004 ft | 349 kts | 247° |
| 2026-04-22 23:16 | 38.43970 | -84.96663 | 14005 ft | 361 kts | 247° |
| 2026-04-22 23:17 | 38.42949 | -84.99705 | 14006 ft | 373 kts | 246° |
| 2026-04-22 23:17 | 38.41870 | -85.02844 | 14003 ft | 386 kts | 246° |
| 2026-04-22 23:17 | 38.40784 | -85.06046 | 14004 ft | 397 kts | 247° |
| 2026-04-22 23:17 | 38.39669 | -85.09392 | 14004 ft | 409 kts | 248° |
| 2026-04-22 23:18 | 38.39116 | -85.12842 | 13991 ft | 385 kts | 265° |
| 2026-04-22 23:18 | 38.38974 | -85.16080 | 13672 ft | 334 kts | 265° |
| 2026-04-22 23:18 | 38.38859 | -85.18894 | 13088 ft | 295 kts | 265° |
| 2026-04-22 23:18 | 38.38777 | -85.21384 | 12519 ft | 263 kts | 265° |
| 2026-04-22 23:19 | 38.38723 | -85.23717 | 11943 ft | 256 kts | 266° |
| 2026-04-22 23:19 | 38.38708 | -85.26020 | 11084 ft | 262 kts | 268° |
| 2026-04-22 23:19 | 38.38615 | -85.28348 | 10305 ft | 262 kts | 264° |
| 2026-04-22 23:19 | 38.38491 | -85.30587 | 9540 ft | 246 kts | 266° |
| 2026-04-22 23:20 | 38.38405 | -85.32702 | 8652 ft | 236 kts | 266° |
| 2026-04-22 23:20 | 38.38305 | -85.34731 | 7934 ft | 219 kts | 265° |
| 2026-04-22 23:20 | 38.38193 | -85.36617 | 7278 ft | 206 kts | 265° |
| 2026-04-22 23:20 | 38.38117 | -85.38374 | 6656 ft | 192 kts | 266° |
| 2026-04-22 23:21 | 38.38081 | -85.40018 | 6132 ft | 173 kts | 268° |
| 2026-04-22 23:21 | 38.38087 | -85.41563 | 5667 ft | 178 kts | 268° |
| 2026-04-22 23:21 | 38.38106 | -85.43100 | 5245 ft | 169 kts | 266° |
| 2026-04-22 23:21 | 38.38077 | -85.44647 | 4858 ft | 178 kts | 265° |
| 2026-04-22 23:22 | 38.38073 | -85.46235 | 4522 ft | 180 kts | 267° |
| 2026-04-22 23:22 | 38.38099 | -85.47900 | 4213 ft | 193 kts | 268° |
| 2026-04-22 23:22 | 38.38129 | -85.49678 | 3959 ft | 199 kts | 267° |
| 2026-04-22 23:22 | 38.38093 | -85.51420 | 3976 ft | 184 kts | 264° |
| 2026-04-22 23:23 | 38.38065 | -85.52999 | 3962 ft | 172 kts | 265° |
| 2026-04-22 23:23 | 38.38044 | -85.54514 | 3925 ft | 170 kts | 265° |
| 2026-04-22 23:23 | 38.38021 | -85.56032 | 3889 ft | 168 kts | 265° |
| 2026-04-22 23:23 | 38.37990 | -85.57546 | 3958 ft | 171 kts | 265° |
| 2026-04-22 23:24 | 38.37965 | -85.59107 | 4047 ft | 176 kts | 265° |
| 2026-04-22 23:24 | 38.37931 | -85.60783 | 3912 ft | 198 kts | 265° |
| 2026-04-22 23:24 | 38.37894 | -85.62575 | 3601 ft | 205 kts | 266° |
| 2026-04-22 23:24 | 38.37882 | -85.64442 | 3328 ft | 208 kts | 266° |
| 2026-04-22 23:25 | 38.37865 | -85.66285 | 3019 ft | 206 kts | 266° |
| 2026-04-22 23:25 | 38.37851 | -85.68057 | 2969 ft | 187 kts | 265° |
| 2026-04-22 23:25 | 38.37837 | -85.69637 | 2963 ft | 170 kts | 266° |
| 2026-04-22 23:25 | 38.37835 | -85.71146 | 2834 ft | 183 kts | 265° |
| 2026-04-22 23:26 | 38.37822 | -85.72923 | 2620 ft | 209 kts | 266° |
| 2026-04-22 23:26 | 38.37815 | -85.74882 | 2542 ft | 226 kts | 267° |
| 2026-04-22 23:26 | 38.37296 | -85.76640 | 2558 ft | 194 kts | 219° |
| 2026-04-22 23:26 | 38.36224 | -85.77421 | 2480 ft | 168 kts | 199° |
| 2026-04-22 23:27 | 38.35133 | -85.77640 | 2395 ft | 150 kts | 183° |
| 2026-04-22 23:27 | 38.34058 | -85.77402 | 2367 ft | 191 kts | 172° |
| 2026-04-22 23:27 | 38.32560 | -85.76948 | 2376 ft | 231 kts | 169° |
| 2026-04-22 23:27 | 38.30945 | -85.76463 | 2369 ft | 244 kts | 172° |
| 2026-04-22 23:28 | 38.29361 | -85.76107 | 2240 ft | 220 kts | 175° |
| 2026-04-22 23:28 | 38.27941 | -85.75832 | 2136 ft | 192 kts | 176° |
| 2026-04-22 23:28 | 38.26704 | -85.75608 | 1918 ft | 170 kts | 176° |
| 2026-04-22 23:28 | 38.25588 | -85.75350 | 1707 ft | 158 kts | 174° |
| 2026-04-22 23:29 | 38.24491 | -85.75025 | 1571 ft | 168 kts | 169° |
| 2026-04-22 23:29 | 38.23321 | -85.74604 | 1446 ft | 180 kts | 169° |
| 2026-04-22 23:29 | 38.22091 | -85.74184 | 1235 ft | 183 kts | 171° |
| 2026-04-22 23:29 | 38.20864 | -85.73817 | 964 ft | 183 kts | 171° |
| 2026-04-22 23:30 | 38.19651 | -85.73426 | 717 ft | 179 kts | 169° |
| 2026-04-22 23:30 | 38.18490 | -85.73053 | 512 ft | 159 kts | 168° |
| 2026-04-22 23:30 | 38.17585 | -85.72745 | 505 ft | 70 kts | 164° |
| 2026-04-22 23:30 | 38.17303 | -85.72646 | 505 ft | 20 kts | 157° |
| 2026-04-22 23:31 | 38.17231 | -85.72528 | 505 ft | 4 kts | 91° |
| 2026-04-22 23:31 | 38.17231 | -85.72526 | 505 ft | 1 kts | 90° |
| 2026-04-22 23:31 | 38.17232 | -85.72483 | 505 ft | 5 kts | 69° |
| 2026-04-22 23:31 | 38.17292 | -85.72480 | 505 ft | 14 kts | 343° |
| 2026-04-22 23:32 | 38.17417 | -85.72515 | 505 ft | 18 kts | 13° |
| 2026-04-22 23:32 | 38.17533 | -85.72433 | 505 ft | 17 kts | 39° |
| 2026-04-22 23:32 | 38.17620 | -85.72365 | 505 ft | 18 kts | 343° |
| 2026-04-22 23:32 | 38.17682 | -85.72448 | 505 ft | 13 kts | 252° |